Aviation Digital Data Service (ADDS)

Output produced by METARs form (1205 UTC 24 February 2018)
found at http://www.aviationweather.gov/adds/metars/
 
TAF AMD KFAF 240330Z 2403/2501 27009KT 9999 OVC007 QNH3025INS 
     BECMG 2404/2405 21006KT 4800 BR BKN007 QNH3021INS 
     BECMG 2405/2406 21006KT 3200 BR BKN007 QNH3021INS 
     BECMG 2412/2413 22006KT 9999 NSW SCT025 QNH3016INS 
     BECMG 2417/2418 22006KT 9999 BKN020 QNH3011INS TX18/2418Z TN09/2408Z LAST NO AMDS AFT 2404 NEXT 2611
       
KFAR 241138Z 2412/2512 18009KT 6SM BR FEW040 
     FM241400 17007KT P6SM BKN003 
     FM241600 16008KT P6SM BKN001 
     TEMPO 2420/2421 1SM -SN OVC007 
     FM242100 14008KT 1SM -SN OVC010 
     FM250300 19004KT 1 1/2SM -SN OVC015 
     FM250600 23005KT P6SM BKN015 
     FM250700 23006KT P6SM BKN035
       
KFAT 241120Z 2412/2512 VRB04KT P6SM SKC 
     FM242300 31009KT P6SM SCT080
       
KFAY 241120Z 2412/2512 22007KT 6SM BR OVC006 
     TEMPO 2412/2414 1SM BR OVC003 
     FM241400 22007KT P6SM BKN010 
     FM241800 22011KT P6SM SCT050 
     FM250000 18007KT P6SM SCT250 
     FM250900 20009KT P6SM BKN050
       
TAF AMD KFBG 241040Z 2410/2516 24007KT 4800 BR OVC008 QNH3023INS 
     TEMPO 2411/2413 3200 BR 
     BECMG 2415/2416 21010G18KT 9999 NSW SCT015 BKN060 QNH3009INS 
     BECMG 2500/2501 18006KT 9999 SCT090 QNH3003INS 
     BECMG 2506/2507 20012KT 9999 SCT003 BKN010 510052 QNH3013INS 
     BECMG 2508/2509 20012KT 9999 OVC003 WS020/22040KT QNH3015INS 
     BECMG 2514/2515 22012KT 9999 SCT005 BKN012 QNH3016INS TX27/2420Z TN16/2411Z
       
TAF AMD KFCS 240745Z 2407/2511 16009KT 4800 BR OVC002 620027 QNH2978INS 
     TEMPO 2407/2409 OVC007 620079 
     BECMG 2411/2412 36010G15KT 8000 -SN BKN010 620109 QNH2969INS 
     BECMG 2414/2415 34015G25KT 9999 NSW FEW070 510009 QNH2968INS 
     BECMG 2502/2503 26012KT 9999 SCT150 QNH2974INS TX05/2421Z TNM08/2504Z
       
KFDY 241158Z 2412/2512 06008KT 6SM -RA BR OVC007 
     FM241900 09010KT P6SM VCSH OVC012 
     FM242300 09010KT 5SM -RA OVC007 
     FM250200 12010KT 3SM -RA BR OVC007 
     FM250900 20015G28KT 5SM BR BKN007 OVC035 
     FM251100 24020G32KT P6SM SCT015 BKN035
       
TAF KFFO 241100Z 2411/2517 VRB06KT 6000 -RA BR OVC007 QNH2987INS 
     BECMG 2500/2501 09012KT 3200 -RA BR OVC003 510203 QNH2963INS 
     BECMG 2506/2507 20012G18KT 8000 -RA BR OVC007 510203 QNH2958INS 
     BECMG 2511/2512 26012G18KT 9999 NSW FEW010 QNH2981INS TX16/2508Z TN05/2414Z
       
TAF AMD KFHU 240303Z 2403/2508 25012KT 9999 SKC QNH3000INS 
     BECMG 2407/2408 29009KT 9999 SCT030 QNH3009INS 
     BECMG 2416/2417 34009KT 9999 SKC QNH3008INS TX10/2421Z TNM01/2412Z LAST NO AMDS AFT 2406 NEXT 2602
       
KFKL 241150Z 2412/2512 35003KT P6SM OVC012 
     TEMPO 2412/2414 OVC008 
     FM241500 06006KT 5SM -SHRA OVC015 
     FM242200 09006KT 5SM -SHRA OVC012 
     FM250300 12011KT 3SM -SHRA OVC008 
     FM250500 13011G19KT 2SM +SHRA OVC003
       
KFLG 241120Z 2412/2512 VRB05KT P6SM SKC 
     FM241900 23012G20KT P6SM SKC 
     FM250200 23012KT P6SM BKN200 
     FM250600 24012KT P6SM SCT100 BKN200
       
KFLL 241120Z 2412/2518 11012KT P6SM VCSH SCT025 BKN050 
     FM241400 12016KT P6SM FEW025 SCT050 
     FM250000 12011KT P6SM SCT025 BKN050 
     FM250600 12009KT P6SM SCT025 BKN040 
     FM251500 12013KT P6SM SCT030 SCT040
       
KFLO 241120Z 2412/2512 22006KT 3SM BR OVC002 
     FM241400 21005KT 3SM BR BKN003 
     FM241500 22009KT P6SM BKN025 
     FM241800 22011KT P6SM SCT050
       
KFMH 241141Z 2412/2512 26007KT P6SM BKN200 
     FM242000 02004KT P6SM -RA OVC035 
     FM250200 05004KT P6SM OVC060 
     FM251000 08011G21KT P6SM -RA OVC060
       
KFMN 241120Z 2412/2512 27012G20KT P6SM SCT015 SCT050 
     FM241500 29020G30KT P6SM SCT050 
     FM242200 28012KT P6SM SCT100 
     FM250300 27006KT P6SM BKN100
       
KFMY 241130Z 2412/2512 09004KT P6SM FEW060 
     FM241300 12008KT P6SM SCT025 
     FM242100 18008KT P6SM FEW030 SCT050 
     FM250200 14004KT P6SM SCT060 
     FM250900 VRB03KT 6SM BR FEW015 FEW060
       
KFNT 241121Z 2412/2512 34006KT P6SM OVC018 
     FM241500 05006KT P6SM BKN020 OVC080 
     FM242300 09010KT P6SM BKN015 
     FM250400 12015KT 4SM -RA OVC009
       
KFOD 241122Z 2412/2512 06007KT 1/4SM FG OVC003 
     TEMPO 2412/2415 1SM BR OVC006 
     FM241600 10009G15KT 3SM -FZRASN BR OVC006 
     FM242300 24008KT 2SM -SN BR OVC006 
     FM250200 28010KT P6SM OVC006 
     FM250400 28014G22KT P6SM OVC011
       
KFOE 241133Z 2412/2512 06006KT 2SM -DZ BR OVC004 
     FM241800 11005KT 3SM BR VCSH OVC004 
     FM242100 29010KT 6SM BR OVC006 
     FM250000 29011KT P6SM BKN012 
     FM250100 29009KT P6SM SCT020
       
KFPR 241125Z 2412/2512 12008KT P6SM SCT025 SCT060 
     FM241500 12012KT P6SM SCT035 
     FM250000 13007KT P6SM FEW040
       
TAF AMD KFRI 240634Z 2406/2506 08009KT 4800 -FZDZ BR OVC008 660001 620012 QNH2990INS 
     TEMPO 2406/2414 6000 -DZ BR 
     BECMG 2413/2414 11005KT 9999 NSW OVC012 QNH2974INS 
     BECMG 2419/2420 31009KT 4800 -DZ BR OVC010 QNH2968INS 
     BECMG 2423/2424 32009KT 9999 NSW SCT020 QNH2972INS 
     BECMG 2501/2502 25006KT 9999 SKC QNH2982INS TX04/2420Z TNM01/2410Z LAST NO AMDS AFT 2406 NEXT 2606
       
KFSD 241141Z 2412/2512 12007KT 1 1/2SM BR OVC003 
     TEMPO 2412/2414 3/4SM BR 
     FM241500 09007KT 4SM -SN BR OVC003 
     FM241700 09007KT 1 1/2SM -SN OVC007 
     TEMPO 2418/2421 3/4SM -SN 
     FM242200 17006KT 2SM -SN OVC010 
     FM250000 26006KT 5SM -SN OVC010 
     FM250300 27010KT P6SM OVC015 
     FM250700 27010KT P6SM SCT090
       
TAF KFSI 232200Z 2322/2504 02006KT 6000 -SHRA BR BKN005 620052 QNH2989INS 
     TEMPO 2322/2323 1600 -TSRA BKN005CB 
     BECMG 2415/2416 27008KT 9999 NSW SKC QNH2978INS 
     TEMPO 2419/2422 25015G25KT 
     BECMG 2421/2422 VRB06KT 9999 SKC QNH2978INS TX15/2421Z TN02/2412Z LAST NO AMDS AFT 2404 NEXT 2614
       
KFSM 241140Z 2412/2512 04005KT 4SM BR BKN003 OVC015 
     TEMPO 2412/2414 2SM BR BKN002 
     FM241400 08005KT 5SM BR BKN004 
     FM241600 VRB06KT 5SM -TSRA BR BKN005CB 
     TEMPO 2417/2420 VRB15G25KT 2SM -TSRA BR BKN015CB 
     FM242300 28011KT P6SM BKN015 BKN025 
     FM250500 VRB05KT P6SM SKC
       
KFST 241120Z 2412/2512 25011KT P6SM FEW200 
     FM241500 27022G30KT P6SM SKC 
     FM250100 24011KT P6SM SKC
       
TAF AMD KFTK 241201Z 2412/2515 05009KT 8000 -RA OVC004 540253 QNH3000INS 
     BECMG 2415/2416 14009KT 9000 -RA OVC009 540153 QNH2989INS 
     TEMPO 2419/2422 32015G25KT 4800 -TSRA OVC005CB 
     BECMG 2421/2422 18012KT 8000 -SHRA BKN005 OVC009 540203 QNH2983INS 
     BECMG 2500/2501 18015KT 9000 -SHRA OVC010 540154 QNH2975INS 
     TEMPO 2503/2506 23025G35KT 4800 -TSRA BKN006CB OVC010 
     BECMG 2505/2506 21012G18KT 6000 -RA OVC005 540154 QNH2975INS 
     BECMG 2507/2508 25010G20KT 8000 -RA BKN007 OVC015 540154 QNH2983INS 
     BECMG 2509/2510 28015G25KT 9999 NSW SCT010 BKN070 510203 QNH2990INS 
     BECMG 2513/2514 27012KT 9999 SCT210 510252 QNH3002INS TX20/2423Z TN10/2412Z
       
KFTW 241127Z 2412/2512 33005KT 1SM -RA VCTS OVC002CB 
     TEMPO 2412/2414 2SM -TSRA OVC004CB 
     FM241400 20013KT 3SM BR VCTS OVC006CB 
     TEMPO 2414/2417 27015G25KT 1SM TSRA 
     FM241800 27016KT P6SM BKN015 
     FM241900 27013KT P6SM SCT025 
     FM250000 30010KT P6SM SCT250 
     FM250900 05007KT P6SM FEW250
       
KFTY 241136Z 2412/2512 20003KT P6SM FEW060 BKN070 
     TEMPO 2412/2414 20006KT BKN030 
     FM241500 19010KT P6SM BKN040 
     FM241900 21010G15KT P6SM BKN050 
     FM250200 19008KT P6SM SCT050 BKN250 
     FM250600 20008KT P6SM OVC100 
     FM251100 21008KT P6SM -SHRA BKN025
       
KFVE 241140Z 2412/2512 30007KT P6SM BKN040 
     FM241300 31011G18KT P6SM BKN030 
     FM241500 31012G22KT P6SM BKN050 
     FM250000 32009KT P6SM SKC
       
KFWA 241141Z 2412/2512 05010KT 4SM -RA BR OVC008 
     FM241700 09011KT 5SM -RA BR OVC006 
     FM250000 10011KT 4SM -RA BR OVC004 
     FM250500 14012G19KT 2SM RA BR OVC003 WS020/22045KT 
     FM251000 24016G24KT 4SM -RA BR BKN020
       
KFXE 241120Z 2412/2512 09010KT P6SM VCSH SCT025 BKN050 
     FM241400 11014KT P6SM FEW025 SCT050 
     FM250000 11010KT P6SM FEW025 SCT040 
     FM250600 11006KT P6SM FEW030 SCT040
       
KFYV 241140Z 2412/2512 VRB03KT 6SM -RA BR SCT007 BKN015 
     TEMPO 2412/2414 2SM -RA BR BKN007 
     FM241400 VRB05KT 3SM BR BKN005 
     FM241700 VRB06KT 4SM -RA BR BKN006 
     TEMPO 2417/2420 VRB15G25KT 2SM -TSRA BR BKN015CB 
     FM242300 28012KT P6SM BKN015 BKN025 
     FM250500 26007KT P6SM SKC